createdAt,value
2023-06-17T00:00:40.797Z,697.26
2023-06-17T00:01:40.729Z,696.97
2023-06-17T00:02:40.748Z,697.44
2023-06-17T00:03:40.828Z,697.57
2023-06-17T00:04:40.701Z,698.57
2023-06-17T00:05:40.679Z,699.03
2023-06-17T00:06:40.675Z,699.55
2023-06-17T00:07:40.710Z,698.55
2023-06-17T00:08:40.655Z,698.02
2023-06-17T00:09:40.639Z,697.59
2023-06-17T00:10:40.634Z,696.38
2023-06-17T00:11:40.659Z,693.86
2023-06-17T00:12:40.613Z,692.83
2023-06-17T00:13:40.595Z,693.04
2023-06-17T00:14:40.586Z,692.46
2023-06-17T00:15:40.610Z,691.50
2023-06-17T00:16:40.563Z,693.40
2023-06-17T00:17:40.593Z,695.00
2023-06-17T00:18:40.543Z,696.81
2023-06-17T00:19:40.527Z,697.95
2023-06-17T00:20:40.539Z,698.48
2023-06-17T00:21:40.509Z,699.46
2023-06-17T00:22:40.503Z,701.89
2023-06-17T00:23:40.508Z,701.29
2023-06-17T00:24:40.555Z,700.75
2023-06-17T00:25:40.465Z,700.27
2023-06-17T00:26:40.492Z,700.82
2023-06-17T00:27:40.444Z,701.33
2023-06-17T00:28:40.442Z,701.20
2023-06-17T00:29:40.429Z,701.25
2023-06-17T00:30:40.432Z,700.41
2023-06-17T00:31:40.397Z,700.80
2023-06-17T00:32:40.409Z,700.31
2023-06-17T00:33:40.440Z,698.80
2023-06-17T00:34:40.363Z,699.14
2023-06-17T00:35:40.364Z,699.61
2023-06-17T00:36:40.344Z,700.32
2023-06-17T00:37:40.329Z,700.72
2023-06-17T00:38:40.345Z,701.19
2023-06-17T00:39:40.328Z,700.97
2023-06-17T00:40:40.325Z,701.00
2023-06-17T00:41:40.301Z,701.12
2023-06-17T00:42:40.277Z,700.27
2023-06-17T00:43:40.260Z,700.77
2023-06-17T00:44:40.255Z,701.56
2023-06-17T00:45:40.592Z,702.20
2023-06-17T00:46:40.351Z,702.93
2023-06-17T00:47:47.249Z,702.63
2023-06-17T00:48:40.210Z,702.54
2023-06-17T00:49:40.195Z,700.67
2023-06-17T00:50:40.184Z,698.76
2023-06-17T00:51:40.177Z,695.80
2023-06-17T00:52:42.441Z,694.49
2023-06-17T00:53:40.161Z,693.13
2023-06-17T00:54:40.145Z,693.50
2023-06-17T00:55:40.154Z,693.96
2023-06-17T00:56:40.132Z,694.73
2023-06-17T00:57:40.167Z,694.16
2023-06-17T00:58:40.114Z,695.02
2023-06-17T00:59:40.094Z,694.97
2023-06-17T01:00:40.101Z,696.05
2023-06-17T01:01:40.063Z,697.06
2023-06-17T01:02:40.168Z,698.61
2023-06-17T01:03:40.081Z,698.35
2023-06-17T01:04:40.032Z,697.41
2023-06-17T01:05:40.038Z,696.59
2023-06-17T01:06:40.012Z,694.32
2023-06-17T01:07:40.002Z,691.06
2023-06-17T01:08:40.022Z,685.52
2023-06-17T01:09:39.995Z,684.78
2023-06-17T01:10:39.984Z,684.09
2023-06-17T01:11:40.773Z,685.28
2023-06-17T01:12:39.947Z,685.78
2023-06-17T01:13:39.946Z,684.78
2023-06-17T01:14:39.926Z,685.62
2023-06-17T01:15:39.926Z,687.87
2023-06-17T01:16:40.048Z,688.76
2023-06-17T01:17:39.914Z,688.41
2023-06-17T01:18:39.900Z,688.33
2023-06-17T01:19:39.867Z,688.65
2023-06-17T01:20:39.883Z,686.74
2023-06-17T01:21:39.854Z,685.18
2023-06-17T01:22:39.854Z,682.76
2023-06-17T01:23:39.825Z,683.04
2023-06-17T01:24:39.868Z,683.80
2023-06-17T01:25:39.800Z,685.94
2023-06-17T01:26:39.812Z,689.20
2023-06-17T01:27:39.808Z,691.25
2023-06-17T01:28:39.782Z,690.41
2023-06-17T01:29:39.771Z,691.62
2023-06-17T01:30:39.771Z,692.58
2023-06-17T01:31:39.753Z,694.71
2023-06-17T01:32:39.798Z,696.12
2023-06-17T01:33:39.739Z,697.47
2023-06-17T01:34:39.707Z,698.42
2023-06-17T01:35:39.689Z,699.16
2023-06-17T01:36:39.710Z,699.12
2023-06-17T01:37:39.665Z,697.34
2023-06-17T01:38:39.662Z,697.09
2023-06-17T01:39:39.662Z,698.19
2023-06-17T01:40:39.642Z,698.77
2023-06-17T01:41:39.630Z,699.06
2023-06-17T01:42:39.673Z,698.48
2023-06-17T01:43:39.631Z,697.95
2023-06-17T01:44:39.604Z,698.06
2023-06-17T01:45:39.588Z,697.51
2023-06-17T01:46:39.592Z,698.04
2023-06-17T01:47:39.573Z,697.57
2023-06-17T01:48:39.558Z,696.61
2023-06-17T01:49:39.537Z,694.57
2023-06-17T01:50:39.550Z,694.98
2023-06-17T01:51:39.514Z,696.81
2023-06-17T01:52:39.510Z,697.78
2023-06-17T01:53:39.505Z,697.80
2023-06-17T01:54:39.511Z,697.08
2023-06-17T01:55:39.467Z,696.36
2023-06-17T01:56:39.477Z,697.17
2023-06-17T01:57:39.450Z,696.64
2023-06-17T01:58:39.437Z,694.13
2023-06-17T01:59:39.443Z,695.61
2023-06-17T02:00:39.453Z,695.94
2023-06-17T02:01:39.444Z,696.46
2023-06-17T02:02:39.453Z,697.05
2023-06-17T02:03:39.469Z,695.42
2023-06-17T02:04:39.375Z,690.65
2023-06-17T02:05:39.361Z,691.15
2023-06-17T02:06:39.352Z,689.48
2023-06-17T02:07:39.373Z,690.97
2023-06-17T02:08:39.332Z,692.89
2023-06-17T02:09:39.318Z,693.30
2023-06-17T02:10:39.312Z,693.21
2023-06-17T02:11:39.320Z,692.54
2023-06-17T02:12:39.292Z,693.27
2023-06-17T02:13:39.307Z,694.10
2023-06-17T02:14:39.271Z,693.20
2023-06-17T02:15:39.415Z,691.00
2023-06-17T02:16:39.291Z,689.55
2023-06-17T02:17:40.237Z,690.54
2023-06-17T02:18:39.229Z,692.21
2023-06-17T02:19:39.210Z,693.93
2023-06-17T02:20:39.241Z,695.66
2023-06-17T02:21:39.213Z,697.48
2023-06-17T02:22:39.180Z,698.83
2023-06-17T02:23:39.168Z,699.29
2023-06-17T02:24:39.205Z,700.14
2023-06-17T02:25:39.174Z,700.94
2023-06-17T02:26:39.151Z,700.36
2023-06-17T02:27:39.133Z,700.46
2023-06-17T02:28:39.115Z,701.12
2023-06-17T02:29:39.173Z,700.43
2023-06-17T02:30:39.104Z,699.42
2023-06-17T02:31:39.126Z,698.25
2023-06-17T02:32:39.125Z,698.44
2023-06-17T02:33:39.076Z,698.78
2023-06-17T02:34:39.075Z,698.16
2023-06-17T02:35:39.062Z,695.80
2023-06-17T02:36:39.026Z,694.69
2023-06-17T02:37:39.034Z,693.88
2023-06-17T02:38:39.043Z,691.37
2023-06-17T02:39:39.004Z,687.34
2023-06-17T02:40:38.989Z,682.40
2023-06-17T02:41:38.993Z,679.56
2023-06-17T02:42:39.017Z,681.04
2023-06-17T02:43:38.948Z,679.73
2023-06-17T02:44:38.960Z,679.88
2023-06-17T02:45:38.933Z,680.22
2023-06-17T02:46:39.011Z,680.84
2023-06-17T02:47:38.975Z,682.66
2023-06-17T02:49:54.801Z,690.02
2023-06-17T02:50:54.803Z,695.59
2023-06-17T02:51:55.416Z,697.16
2023-06-17T02:52:54.787Z,697.57
2023-06-17T02:53:54.774Z,696.48
2023-06-17T02:54:54.750Z,695.54
2023-06-17T02:55:54.751Z,695.43
2023-06-17T02:56:54.731Z,695.64
2023-06-17T02:57:54.772Z,695.91
2023-06-17T02:58:54.749Z,695.80
2023-06-17T02:59:54.692Z,695.91
2023-06-17T03:00:54.737Z,696.90
2023-06-17T03:01:54.709Z,697.64
2023-06-17T03:02:54.902Z,697.96
2023-06-17T03:03:54.650Z,698.70
2023-06-17T03:04:54.660Z,699.17
2023-06-17T03:05:54.662Z,699.33
2023-06-17T03:06:54.637Z,699.60
2023-06-17T03:07:54.636Z,699.01
2023-06-17T03:08:54.599Z,697.94
2023-06-17T03:09:54.605Z,697.01
2023-06-17T03:10:54.581Z,696.16
2023-06-17T03:11:54.560Z,696.48
2023-06-17T03:12:54.566Z,696.58
2023-06-17T03:13:54.573Z,696.71
2023-06-17T03:14:54.821Z,696.00
2023-06-17T03:15:54.528Z,694.79
2023-06-17T03:16:54.618Z,694.46
2023-06-17T03:17:54.591Z,694.27
2023-06-17T03:18:54.518Z,693.72
2023-06-17T03:19:54.478Z,693.95
2023-06-17T03:20:54.499Z,692.83
2023-06-17T03:21:56.169Z,689.15
2023-06-17T03:22:54.447Z,688.69
2023-06-17T03:23:54.542Z,689.87
2023-06-17T03:24:54.430Z,691.45
2023-06-17T03:25:54.420Z,693.25
2023-06-17T03:26:54.417Z,692.01
2023-06-17T03:27:54.417Z,691.79
2023-06-17T03:28:54.386Z,692.30
2023-06-17T03:29:54.375Z,692.54
2023-06-17T03:30:54.419Z,693.12
2023-06-17T03:31:54.362Z,694.09
2023-06-17T03:32:54.514Z,692.59
2023-06-17T03:33:54.331Z,693.20
2023-06-17T03:34:54.371Z,692.65
2023-06-17T03:35:54.307Z,690.02
2023-06-17T03:36:54.297Z,688.05
2023-06-17T03:37:54.297Z,687.62
2023-06-17T03:38:54.300Z,684.49
2023-06-17T03:39:54.259Z,678.65
2023-06-17T03:40:54.295Z,674.48
2023-06-17T03:41:54.260Z,670.58
2023-06-17T03:42:54.229Z,669.31
2023-06-17T03:43:54.248Z,670.59
2023-06-17T03:44:54.213Z,669.52
2023-06-17T03:45:54.192Z,672.09
2023-06-17T03:46:54.185Z,673.65
2023-06-17T03:47:54.309Z,676.19
2023-06-17T03:48:54.180Z,673.18
2023-06-17T03:49:54.166Z,675.81
2023-06-17T03:50:54.170Z,680.45
2023-06-17T03:51:54.129Z,684.80
2023-06-17T03:52:54.137Z,688.20
2023-06-17T03:53:54.117Z,690.67
2023-06-17T03:54:54.098Z,691.76
2023-06-17T03:55:54.093Z,692.83
2023-06-17T03:56:54.078Z,693.37
2023-06-17T03:57:54.106Z,693.61
2023-06-17T03:58:54.068Z,693.61
2023-06-17T03:59:54.062Z,692.37
2023-06-17T04:00:54.030Z,691.53
2023-06-17T04:01:54.015Z,691.83
2023-06-17T04:02:54.099Z,692.39
2023-06-17T04:03:54.136Z,689.45
2023-06-17T04:04:53.999Z,688.60
2023-06-17T04:05:53.974Z,687.72
2023-06-17T04:06:53.988Z,688.33
2023-06-17T04:07:53.957Z,687.83
2023-06-17T04:08:53.954Z,685.93
2023-06-17T04:10:53.923Z,680.18
2023-06-17T04:11:53.907Z,678.61
2023-06-17T04:12:53.898Z,680.16
2023-06-17T04:13:53.907Z,682.33
2023-06-17T04:14:53.896Z,681.49
2023-06-17T04:15:53.878Z,683.81
2023-06-17T04:16:53.854Z,685.04
2023-06-17T04:17:57.198Z,686.97
2023-06-17T04:18:53.832Z,685.14
2023-06-17T04:19:53.844Z,684.29
2023-06-17T04:20:54.794Z,685.75
2023-06-17T04:21:53.798Z,687.47
2023-06-17T04:22:53.822Z,690.03
2023-06-17T04:23:53.830Z,691.33
2023-06-17T04:24:53.762Z,693.55
2023-06-17T04:25:53.762Z,694.48
2023-06-17T04:26:53.784Z,695.67
2023-06-17T04:27:53.738Z,695.88
2023-06-17T04:28:53.757Z,696.71
2023-06-17T04:29:53.717Z,697.34
2023-06-17T04:30:53.695Z,697.33
2023-06-17T04:31:53.728Z,698.08
2023-06-17T04:32:53.750Z,697.91
2023-06-17T04:33:53.665Z,697.32
2023-06-17T04:34:53.674Z,694.61
2023-06-17T04:35:53.642Z,692.93
2023-06-17T04:36:53.633Z,690.41
2023-06-17T04:37:53.653Z,686.00
2023-06-17T04:38:53.738Z,683.43
2023-06-17T04:39:53.618Z,685.94
2023-06-17T04:40:53.588Z,684.39
2023-06-17T04:41:53.578Z,686.91
2023-06-17T04:42:53.638Z,687.62
2023-06-17T04:43:53.612Z,689.58
2023-06-17T04:44:53.547Z,687.99
2023-06-17T04:45:53.564Z,686.16
2023-06-17T04:46:53.559Z,684.51
2023-06-17T04:47:53.559Z,688.14
2023-06-17T04:48:53.524Z,693.49
2023-06-17T04:53:28.845Z,696.68
2023-06-17T04:54:28.865Z,697.69
2023-06-17T04:55:28.819Z,699.31
2023-06-17T04:56:28.802Z,696.81
2023-06-17T04:57:28.806Z,697.83
2023-06-17T04:58:28.785Z,699.30
2023-06-17T04:59:28.770Z,699.02
2023-06-17T05:00:29.097Z,698.59
2023-06-17T05:01:28.849Z,698.35
2023-06-17T05:02:28.807Z,697.15
2023-06-17T05:03:29.142Z,698.07
2023-06-17T05:04:28.714Z,699.27
2023-06-17T05:05:28.704Z,699.25
2023-06-17T05:06:28.708Z,698.79
2023-06-17T05:07:28.678Z,700.01
2023-06-17T05:08:28.669Z,701.08
2023-06-17T05:09:28.672Z,700.90
2023-06-17T05:10:28.701Z,696.63
2023-06-17T05:11:28.636Z,697.44
2023-06-17T05:12:28.645Z,695.78
2023-06-17T05:13:28.616Z,696.84
2023-06-17T05:14:28.605Z,698.03
2023-06-17T05:19:02.596Z,697.32
2023-06-17T05:20:02.541Z,700.34
2023-06-17T05:21:02.534Z,700.51
2023-06-17T05:22:02.545Z,700.27
2023-06-17T05:23:02.522Z,699.42
2023-06-17T05:24:03.952Z,700.73
2023-06-17T05:25:02.487Z,701.78
2023-06-17T05:26:02.523Z,700.40
2023-06-17T05:27:02.472Z,700.00
2023-06-17T05:28:02.759Z,699.43
2023-06-17T05:29:02.469Z,699.08
2023-06-17T05:30:02.428Z,699.60
2023-06-17T05:31:02.520Z,697.53
2023-06-17T05:32:02.415Z,699.17
2023-06-17T05:33:02.451Z,697.90
2023-06-17T05:34:02.415Z,697.78
2023-06-17T05:35:02.394Z,695.78
2023-06-17T05:36:02.366Z,698.08
2023-06-17T05:37:02.364Z,698.32
2023-06-17T05:38:02.365Z,700.73
2023-06-17T05:39:02.335Z,700.62
2023-06-17T05:40:02.316Z,701.20
2023-06-17T05:41:02.327Z,699.92
2023-06-17T05:42:02.359Z,697.85
2023-06-17T05:43:02.289Z,701.79
2023-06-17T05:44:02.294Z,697.71
2023-06-17T05:45:02.267Z,693.87
2023-06-17T05:46:02.401Z,692.43
2023-06-17T05:47:02.243Z,692.66
2023-06-17T05:48:02.360Z,691.64
2023-06-17T05:49:02.251Z,691.69
2023-06-17T05:50:02.214Z,692.02
2023-06-17T05:51:02.207Z,693.00
2023-06-17T05:52:02.189Z,688.37
2023-06-17T05:53:02.186Z,691.26
2023-06-17T05:54:02.174Z,692.65
2023-06-17T05:55:02.179Z,694.24
2023-06-17T05:56:02.146Z,694.97
2023-06-17T05:57:02.171Z,695.02
2023-06-17T05:58:02.158Z,694.81
2023-06-17T05:59:02.116Z,693.80
2023-06-17T06:00:02.161Z,694.74
2023-06-17T06:01:02.092Z,694.33
2023-06-17T06:02:02.282Z,693.61
2023-06-17T06:03:02.143Z,692.89
2023-06-17T06:04:02.132Z,693.10
2023-06-17T06:05:02.078Z,693.79
2023-06-17T06:06:02.062Z,694.06
2023-06-17T06:07:02.026Z,692.71
2023-06-17T06:08:02.083Z,691.70
2023-06-17T06:09:02.015Z,694.31
2023-06-17T06:10:01.998Z,692.74
2023-06-17T06:11:01.981Z,699.37
2023-06-17T06:12:01.985Z,699.35
2023-06-17T06:13:02.039Z,694.31
2023-06-17T06:14:01.976Z,693.98
2023-06-17T06:15:01.948Z,694.14
2023-06-17T06:16:02.018Z,693.55
2023-06-17T06:17:01.921Z,696.86
2023-06-17T06:18:01.952Z,694.42
2023-06-17T06:19:01.906Z,694.24
2023-06-17T06:20:01.904Z,695.23
2023-06-17T06:21:01.888Z,694.47
2023-06-17T06:22:01.867Z,692.27
2023-06-17T06:23:01.883Z,692.74
2023-06-17T06:24:01.921Z,691.80
2023-06-17T06:25:01.858Z,692.27
2023-06-17T06:26:01.835Z,691.90
2023-06-17T06:27:01.812Z,693.74
2023-06-17T06:28:01.814Z,696.97
2023-06-17T06:29:01.788Z,694.34
2023-06-17T06:30:01.885Z,692.65
2023-06-17T06:31:01.799Z,690.89
2023-06-17T06:32:01.750Z,692.66
2023-06-17T06:33:01.788Z,692.40
2023-06-17T06:34:01.745Z,689.62
2023-06-17T06:35:01.753Z,691.31
2023-06-17T06:36:01.714Z,691.34
2023-06-17T06:37:01.708Z,693.30
2023-06-17T06:38:01.692Z,693.87
2023-06-17T06:39:01.683Z,693.28
2023-06-17T06:40:01.663Z,693.23
2023-06-17T06:41:01.680Z,690.57
2023-06-17T06:42:01.654Z,692.33
2023-06-17T06:43:01.652Z,694.09
2023-06-17T06:44:01.618Z,694.10
2023-06-17T06:45:01.618Z,692.81
2023-06-17T06:46:01.672Z,694.09
2023-06-17T06:47:01.604Z,694.55
2023-06-17T06:48:01.763Z,691.51
2023-06-17T06:49:01.603Z,694.96
2023-06-17T06:50:01.548Z,694.46
2023-06-17T06:51:01.547Z,690.86
2023-06-17T06:52:01.532Z,692.20
2023-06-17T06:53:01.547Z,693.14
2023-06-17T06:54:01.509Z,699.28
2023-06-17T06:55:01.533Z,699.16
2023-06-17T08:03:41.833Z,693.61
2023-06-17T08:04:41.769Z,692.55
2023-06-17T08:05:41.741Z,695.13
2023-06-17T08:06:41.748Z,695.46
2023-06-17T08:07:41.684Z,693.04
2023-06-17T08:08:41.681Z,687.69
2023-06-17T08:09:41.688Z,686.12
2023-06-17T08:10:41.683Z,690.26
2023-06-17T08:11:41.659Z,694.53
2023-06-17T08:12:41.647Z,692.24
2023-06-17T08:13:41.856Z,695.19
2023-06-17T08:14:41.806Z,695.94
2023-06-17T08:15:41.687Z,692.59
2023-06-17T08:16:41.672Z,689.26
2023-06-17T08:17:41.591Z,688.39
2023-06-17T08:18:41.625Z,691.22
2023-06-17T08:19:41.730Z,691.50
2023-06-17T08:20:41.584Z,692.12
2023-06-17T08:21:41.746Z,692.69
2023-06-17T08:22:41.587Z,691.00
2023-06-17T08:23:41.553Z,687.92
2023-06-17T08:24:41.524Z,683.45
2023-06-17T08:25:41.471Z,684.21
2023-06-17T08:26:41.467Z,689.77
2023-06-17T08:27:41.458Z,690.02
2023-06-17T08:28:41.438Z,688.11
2023-06-17T08:29:41.423Z,689.98
2023-06-17T08:30:41.441Z,687.53
2023-06-17T08:31:41.423Z,687.74
2023-06-17T08:32:41.466Z,687.27
2023-06-17T08:33:41.394Z,685.10
2023-06-17T08:34:41.380Z,683.46
2023-06-17T08:35:41.399Z,682.84
2023-06-17T08:36:41.371Z,684.31
2023-06-17T08:37:41.361Z,684.98
2023-06-17T08:38:41.345Z,684.93
2023-06-17T08:39:41.329Z,686.74
2023-06-17T08:40:41.309Z,689.11
2023-06-17T08:41:41.304Z,692.69
2023-06-17T08:42:41.293Z,689.11
2023-06-17T08:43:41.280Z,685.09
2023-06-17T08:44:41.280Z,683.91
2023-06-17T08:45:41.307Z,684.90
2023-06-17T08:46:41.246Z,685.29
2023-06-17T08:47:41.270Z,680.96
2023-06-17T08:48:41.256Z,680.18
2023-06-17T08:49:41.212Z,685.09
2023-06-17T08:50:41.268Z,683.71
2023-06-17T08:51:41.238Z,682.99
2023-06-17T08:52:41.210Z,681.38
2023-06-17T08:53:41.191Z,678.62
2023-06-17T08:54:41.179Z,678.97
2023-06-17T08:55:41.159Z,677.56
2023-06-17T08:56:41.158Z,680.67
2023-06-17T08:57:41.136Z,676.60
2023-06-17T08:58:43.823Z,674.80
2023-06-17T08:59:41.123Z,677.30
2023-06-17T09:00:41.106Z,679.90
2023-06-17T09:01:41.156Z,688.64
2023-06-17T09:02:41.103Z,687.57
2023-06-17T09:03:41.065Z,684.68
2023-06-17T09:04:41.137Z,679.28
2023-06-17T09:05:41.047Z,678.43
2023-06-17T09:06:41.032Z,678.87
2023-06-17T09:07:41.284Z,682.75
2023-06-17T09:08:41.021Z,682.01
2023-06-17T09:09:40.996Z,685.48
2023-06-17T09:10:41.008Z,683.09
2023-06-17T09:11:40.987Z,681.81
2023-06-17T09:12:40.982Z,680.80
2023-06-17T09:13:41.002Z,686.87
2023-06-17T09:14:40.979Z,684.09
2023-06-17T09:15:40.945Z,683.08
2023-06-17T09:16:40.949Z,683.14
2023-06-17T09:17:40.923Z,678.85
2023-06-17T09:18:40.908Z,683.55
2023-06-17T09:19:40.893Z,684.54
2023-06-17T09:20:40.904Z,686.80
2023-06-17T09:21:40.871Z,684.42
2023-06-17T09:22:41.440Z,679.06
2023-06-17T09:23:40.863Z,681.18
2023-06-17T09:24:40.866Z,679.80
2023-06-17T09:25:40.868Z,681.80
2023-06-17T09:26:40.820Z,685.30
2023-06-17T09:27:40.805Z,680.77
2023-06-17T09:28:40.805Z,677.43
2023-06-17T09:29:40.791Z,677.15
2023-06-17T09:30:40.790Z,674.07
2023-06-17T09:31:40.771Z,672.89
2023-06-17T09:32:40.791Z,671.92
2023-06-17T09:33:40.757Z,672.89
2023-06-17T09:34:40.739Z,674.37
2023-06-17T09:35:40.740Z,679.76
2023-06-17T09:36:40.708Z,678.67
2023-06-17T09:37:50.377Z,683.03
2023-06-17T09:38:40.708Z,684.07
2023-06-17T09:39:40.692Z,680.00
2023-06-17T09:40:40.673Z,677.61
2023-06-17T09:41:40.652Z,678.66
2023-06-17T09:42:40.684Z,675.10
2023-06-17T09:43:40.633Z,680.60
2023-06-17T09:44:40.651Z,682.32
2023-06-17T09:45:40.624Z,683.19
2023-06-17T09:46:40.684Z,683.50
2023-06-17T09:47:40.639Z,678.98
2023-06-17T09:48:40.591Z,675.48
2023-06-17T09:49:40.602Z,673.27
2023-06-17T09:50:40.561Z,671.17
2023-06-17T09:51:40.578Z,671.42
2023-06-17T09:52:40.539Z,673.11
2023-06-17T09:53:40.552Z,670.26
2023-06-17T09:54:40.529Z,672.86
2023-06-17T09:55:40.547Z,672.54
2023-06-17T09:56:40.498Z,673.92
2023-06-17T09:57:40.491Z,675.56
2023-06-17T09:58:43.527Z,676.16
2023-06-17T09:59:40.494Z,679.82
2023-06-17T10:00:40.452Z,678.28
2023-06-17T10:01:40.455Z,676.56
2023-06-17T10:02:40.508Z,679.61
2023-06-17T10:05:07.591Z,668.54
